createdAt,value
2022-09-27T00:01:39.565Z,17.60
2022-09-27T00:04:07.679Z,17.64
2022-09-27T00:06:39.959Z,17.62
2022-09-27T00:09:08.970Z,17.64
2022-09-27T00:11:40.243Z,17.65
2022-09-27T00:14:09.503Z,17.63
2022-09-27T00:16:40.933Z,17.64
2022-09-27T00:19:12.231Z,17.64
2022-09-27T00:21:40.349Z,17.59
2022-09-27T00:24:08.517Z,17.59
2022-09-27T00:26:36.985Z,17.56
2022-09-27T00:29:05.035Z,17.58
2022-09-27T00:31:33.293Z,17.59
2022-09-27T00:34:04.358Z,17.58
2022-09-27T00:36:33.384Z,17.60
2022-09-27T00:39:02.743Z,17.59
2022-09-27T00:41:32.786Z,17.48
2022-09-27T00:44:04.436Z,17.43
2022-09-27T00:46:37.863Z,17.47
2022-09-27T00:49:14.791Z,17.49
2022-09-27T00:51:46.989Z,17.47
2022-09-27T00:54:18.478Z,17.46
2022-09-27T00:56:47.781Z,17.47
2022-09-27T00:59:21.358Z,17.50
2022-09-27T01:01:51.145Z,17.51
2022-09-27T01:04:24.140Z,17.50
2022-09-27T01:06:52.884Z,17.53
2022-09-27T01:09:21.535Z,17.52
2022-09-27T01:11:55.847Z,17.53
2022-09-27T01:14:38.330Z,17.53
2022-09-27T01:17:16.954Z,17.39
2022-09-27T01:20:32.489Z,17.49
2022-09-27T01:23:21.686Z,17.44
2022-09-27T01:26:12.354Z,17.40
2022-09-27T01:28:57.705Z,17.44
2022-09-27T01:31:34.348Z,17.43
2022-09-27T01:34:07.580Z,17.42
2022-09-27T01:36:45.138Z,17.43
2022-09-27T01:39:26.690Z,17.39
2022-09-27T01:42:02.808Z,17.41
2022-09-27T01:44:36.360Z,17.37
2022-09-27T01:47:12.063Z,17.35
2022-09-27T01:49:47.234Z,17.38
2022-09-27T01:52:21.721Z,17.35
2022-09-27T01:55:00.422Z,17.35
2022-09-27T01:57:33.601Z,17.36
2022-09-27T02:00:05.521Z,17.37
2022-09-27T02:02:39.503Z,17.35
2022-09-27T02:05:11.644Z,17.36
2022-09-27T02:07:42.985Z,17.35
2022-09-27T02:10:14.641Z,17.31
2022-09-27T02:12:51.654Z,17.35
2022-09-27T02:15:20.487Z,17.33
2022-09-27T02:17:58.397Z,17.33
2022-09-27T02:20:31.814Z,17.25
2022-09-27T02:23:10.630Z,17.28
2022-09-27T02:25:45.594Z,17.06
2022-09-27T02:28:24.611Z,17.10
2022-09-27T02:30:52.927Z,17.16
2022-09-27T02:33:25.946Z,17.12
2022-09-27T02:35:53.957Z,16.93
2022-09-27T02:38:22.529Z,16.93
2022-09-27T02:40:50.677Z,17.04
2022-09-27T02:43:22.377Z,17.05
2022-09-27T02:46:08.041Z,17.04
2022-09-27T02:48:45.218Z,17.08
2022-09-27T02:51:32.801Z,17.09
2022-09-27T02:54:12.274Z,17.10
2022-09-27T02:56:49.543Z,17.09
2022-09-27T02:59:27.461Z,17.08
2022-09-27T03:02:08.570Z,17.08
2022-09-27T03:04:45.393Z,17.08
2022-09-27T03:07:15.629Z,17.09
2022-09-27T03:09:46.435Z,17.09
2022-09-27T03:12:14.530Z,17.10
2022-09-27T03:14:42.574Z,17.11
2022-09-27T03:17:10.611Z,17.09
2022-09-27T03:19:40.061Z,17.11
2022-09-27T03:22:08.096Z,17.10
2022-09-27T03:24:36.130Z,17.08
2022-09-27T03:27:04.495Z,17.05
2022-09-27T03:29:32.854Z,17.01
2022-09-27T03:32:00.916Z,17.01
2022-09-27T03:34:29.495Z,17.03
2022-09-27T03:36:59.110Z,17.00
2022-09-27T03:39:27.402Z,16.99
2022-09-27T03:41:55.582Z,17.01
2022-09-27T03:44:23.822Z,17.01
2022-09-27T03:46:51.854Z,16.99
2022-09-27T03:49:19.876Z,16.97
2022-09-27T03:51:48.150Z,17.01
2022-09-27T03:54:17.605Z,16.98
2022-09-27T03:56:45.708Z,17.00
2022-09-27T03:59:14.259Z,16.99
2022-09-27T04:01:44.678Z,16.96
2022-09-27T04:04:12.958Z,16.94
2022-09-27T04:06:40.975Z,16.94
2022-09-27T04:09:09.050Z,16.92
2022-09-27T04:11:38.544Z,16.91
2022-09-27T04:14:06.642Z,16.89
2022-09-27T04:16:34.694Z,16.89
2022-09-27T04:19:03.505Z,16.91
2022-09-27T04:21:31.668Z,16.90
2022-09-27T04:23:59.865Z,16.88
2022-09-27T04:26:28.029Z,16.91
2022-09-27T04:28:58.028Z,16.92
2022-09-27T04:31:26.335Z,16.92
2022-09-27T04:33:54.910Z,16.90
2022-09-27T04:36:29.635Z,16.91
2022-09-27T04:38:59.106Z,16.90
2022-09-27T04:41:28.430Z,16.94
2022-09-27T04:44:01.259Z,16.99
2022-09-27T04:46:31.788Z,16.97
2022-09-27T04:49:00.384Z,16.98
2022-09-27T04:51:28.966Z,16.97
2022-09-27T04:53:58.115Z,16.97
2022-09-27T04:56:26.323Z,16.97
2022-09-27T04:58:54.809Z,16.95
2022-09-27T05:01:24.347Z,16.87
2022-09-27T05:03:52.440Z,16.89
2022-09-27T05:06:20.791Z,16.89
2022-09-27T05:08:48.877Z,16.86
2022-09-27T05:11:17.070Z,16.87
2022-09-27T05:13:45.213Z,16.85
2022-09-27T05:16:13.332Z,16.82
2022-09-27T05:18:42.878Z,16.69
2022-09-27T05:21:10.958Z,16.84
2022-09-27T05:23:38.961Z,16.87
2022-09-27T05:26:07.568Z,16.88
2022-09-27T05:28:36.345Z,16.96
2022-09-27T05:31:04.461Z,17.00
2022-09-27T05:33:34.499Z,17.08
2022-09-27T05:36:04.584Z,17.13
2022-09-27T05:38:32.623Z,17.13
2022-09-27T05:41:00.709Z,17.22
2022-09-27T05:43:29.112Z,17.26
2022-09-27T05:45:57.198Z,17.22
2022-09-27T05:48:25.226Z,17.34
2022-09-27T05:50:53.282Z,17.36
2022-09-27T05:53:22.689Z,17.41
2022-09-27T05:55:50.755Z,17.45
2022-09-27T05:58:18.755Z,17.60
2022-09-27T06:00:46.897Z,17.59
2022-09-27T06:03:15.404Z,17.70
2022-09-27T06:05:45.989Z,17.76
2022-09-27T06:08:16.302Z,17.87
2022-09-27T06:10:46.018Z,18.01
2022-09-27T06:13:15.968Z,18.12
2022-09-27T06:15:47.321Z,18.26
2022-09-27T06:18:18.239Z,18.39
2022-09-27T06:20:46.877Z,18.42
2022-09-27T06:23:17.542Z,18.48
2022-09-27T06:25:48.166Z,18.46
2022-09-27T06:28:17.283Z,18.51
2022-09-27T06:30:47.113Z,18.58
2022-09-27T06:33:18.181Z,18.63
2022-09-27T06:35:47.054Z,18.69
2022-09-27T06:38:17.283Z,18.70
2022-09-27T06:40:47.095Z,18.80
2022-09-27T06:43:17.217Z,18.73
2022-09-27T06:45:45.567Z,18.76
2022-09-27T06:48:16.243Z,18.79
2022-09-27T06:50:45.751Z,18.81
2022-09-27T06:53:15.626Z,18.88
2022-09-27T06:55:44.230Z,18.95
2022-09-27T06:58:31.332Z,18.94
2022-09-27T07:00:59.995Z,18.96
2022-09-27T07:03:35.451Z,19.00
2022-09-27T07:06:07.964Z,19.09
2022-09-27T07:08:36.118Z,19.14
2022-09-27T07:11:06.525Z,19.18
2022-09-27T07:13:40.560Z,19.21
2022-09-27T07:16:08.901Z,19.26
2022-09-27T07:18:37.179Z,19.30
2022-09-27T07:21:05.321Z,19.28
2022-09-27T07:23:33.341Z,19.34
2022-09-27T07:26:04.564Z,19.42
2022-09-27T07:28:32.900Z,19.46
2022-09-27T07:31:03.860Z,19.48
2022-09-27T07:33:33.023Z,19.54
2022-09-27T07:36:01.142Z,19.64
2022-09-27T07:38:29.257Z,19.63
2022-09-27T07:40:57.415Z,19.69
2022-09-27T07:43:25.616Z,19.70
2022-09-27T07:45:53.962Z,19.74
2022-09-27T07:48:23.572Z,19.74
2022-09-27T07:50:51.598Z,19.80
2022-09-27T07:53:19.772Z,19.78
2022-09-27T07:55:52.127Z,19.82
2022-09-27T07:58:21.166Z,19.83
2022-09-27T08:00:49.330Z,19.90
2022-09-27T08:03:19.021Z,19.77
2022-09-27T08:05:49.675Z,19.87
2022-09-27T08:08:18.133Z,19.94
2022-09-27T08:10:47.679Z,20.10
2022-09-27T08:13:20.567Z,20.04
2022-09-27T08:15:50.995Z,20.12
2022-09-27T08:18:22.192Z,20.11
2022-09-27T08:20:51.990Z,19.98
2022-09-27T08:23:20.063Z,20.10
2022-09-27T08:25:54.543Z,20.14
2022-09-27T08:28:22.868Z,20.18
2022-09-27T08:30:52.006Z,20.20
2022-09-27T08:33:20.698Z,20.16
2022-09-27T08:35:48.834Z,20.07
2022-09-27T08:38:18.810Z,20.00
2022-09-27T08:40:54.755Z,19.72
2022-09-27T08:43:36.767Z,19.69
2022-09-27T08:46:14.711Z,19.63
2022-09-27T08:48:46.528Z,19.58
2022-09-27T08:51:16.728Z,19.56
2022-09-27T08:53:52.322Z,19.57
2022-09-27T08:56:21.642Z,19.60
2022-09-27T08:58:54.129Z,19.64
2022-09-27T09:01:27.850Z,19.69
2022-09-27T09:04:01.757Z,19.75
2022-09-27T09:06:36.497Z,19.83
2022-09-27T09:09:16.548Z,19.86
2022-09-27T09:12:17.740Z,19.89
2022-09-27T09:14:59.615Z,19.93
2022-09-27T09:17:45.055Z,19.95
2022-09-27T09:20:23.498Z,19.88
2022-09-27T09:23:19.081Z,19.76
2022-09-27T09:26:00.575Z,19.81
2022-09-27T09:28:43.615Z,19.84
2022-09-27T09:31:23.994Z,19.86
2022-09-27T09:33:56.625Z,19.89
2022-09-27T09:36:32.711Z,19.95
2022-09-27T09:39:06.687Z,20.08
2022-09-27T09:41:42.970Z,20.17
2022-09-27T09:44:18.853Z,20.26
2022-09-27T09:46:51.142Z,20.36
2022-09-27T09:49:25.223Z,20.38
2022-09-27T09:51:57.081Z,20.36
2022-09-27T09:54:31.660Z,20.38
2022-09-27T09:57:05.058Z,20.42
2022-09-27T09:59:39.283Z,20.48
2022-09-27T10:02:22.405Z,20.46
2022-09-27T10:04:50.830Z,20.56
2022-09-27T10:07:22.674Z,20.55
2022-09-27T10:09:51.445Z,20.58
2022-09-27T10:12:20.992Z,20.58
2022-09-27T10:14:51.785Z,20.61
2022-09-27T10:17:22.983Z,20.65
2022-09-27T10:19:54.348Z,20.69
2022-09-27T10:22:28.437Z,20.72
2022-09-27T10:25:01.999Z,20.82
2022-09-27T10:27:41.384Z,20.79
2022-09-27T10:30:24.278Z,20.80
2022-09-27T10:32:57.223Z,20.81
2022-09-27T10:35:37.895Z,20.88
2022-09-27T10:38:23.000Z,20.76
2022-09-27T10:40:52.173Z,20.75
2022-09-27T10:43:32.251Z,20.83
2022-09-27T10:46:18.157Z,20.86
2022-09-27T10:48:46.183Z,20.83
2022-09-27T10:51:26.653Z,20.85
2022-09-27T10:53:58.822Z,20.86
2022-09-27T10:56:30.896Z,20.91
2022-09-27T10:59:01.145Z,20.93
2022-09-27T11:01:40.969Z,21.03
2022-09-27T11:04:09.391Z,21.04
2022-09-27T11:06:39.395Z,21.08
2022-09-27T11:09:24.464Z,21.04
2022-09-27T11:11:52.788Z,20.99
2022-09-27T11:14:33.688Z,20.90
2022-09-27T11:17:11.312Z,20.94
2022-09-27T11:19:55.624Z,20.94
2022-09-27T11:22:42.033Z,20.92
2022-09-27T11:25:21.348Z,20.88
2022-09-27T11:28:01.957Z,20.98
2022-09-27T11:30:40.878Z,20.98
2022-09-27T11:33:36.459Z,21.03
2022-09-27T11:36:13.915Z,21.08
2022-09-27T11:39:00.516Z,21.13
2022-09-27T11:41:41.952Z,21.18
2022-09-27T11:44:25.799Z,21.10
2022-09-27T11:47:06.659Z,21.13
2022-09-27T11:50:03.981Z,21.12
2022-09-27T11:52:45.900Z,21.32
2022-09-27T11:55:26.406Z,21.48
2022-09-27T11:58:03.070Z,21.56
2022-09-27T12:00:46.229Z,21.35
2022-09-27T12:03:47.636Z,21.41
2022-09-27T12:06:19.506Z,21.55
2022-09-27T12:09:03.044Z,21.60
2022-09-27T12:11:36.109Z,21.66
2022-09-27T12:14:08.137Z,21.69
2022-09-27T12:16:38.658Z,21.86
2022-09-27T12:21:45.516Z,21.89
2022-09-27T12:24:21.970Z,21.83
2022-09-27T12:26:52.883Z,21.86
2022-09-27T12:29:26.062Z,21.84
2022-09-27T12:32:03.184Z,21.88
2022-09-27T12:34:40.259Z,21.89
2022-09-27T12:37:15.042Z,21.90
2022-09-27T12:39:52.012Z,21.84
2022-09-27T12:42:25.494Z,21.75
2022-09-27T12:44:54.182Z,21.70
2022-09-27T12:47:41.180Z,21.71
2022-09-27T12:50:21.464Z,21.68
2022-09-27T12:52:56.202Z,21.63
2022-09-27T12:56:02.621Z,21.69
2022-09-27T12:59:01.874Z,21.63
2022-09-27T13:01:47.529Z,21.53
2022-09-27T13:04:32.060Z,21.57
2022-09-27T13:07:17.465Z,21.51
2022-09-27T13:10:02.462Z,21.44
2022-09-27T13:12:31.545Z,21.46
2022-09-27T13:15:03.449Z,21.55
2022-09-27T13:17:48.990Z,21.66
2022-09-27T13:20:46.500Z,21.80
2022-09-27T13:24:03.718Z,21.91
2022-09-27T13:26:50.637Z,21.72
2022-09-27T13:29:24.346Z,21.71
2022-09-27T13:32:12.559Z,21.76
2022-09-27T13:34:42.518Z,21.72
2022-09-27T13:37:45.456Z,21.59
2022-09-27T13:40:25.253Z,21.71
2022-09-27T13:56:53.378Z,22.61
2022-09-27T13:59:26.382Z,22.57
2022-09-27T14:02:01.019Z,22.48
2022-09-27T14:04:35.444Z,22.32
2022-09-27T14:07:05.435Z,22.13
2022-09-27T14:09:36.214Z,22.14
2022-09-27T14:12:11.361Z,22.10
2022-09-27T14:14:42.832Z,22.09
2022-09-27T14:17:11.730Z,22.10
2022-09-27T14:19:42.423Z,22.05
2022-09-27T14:22:14.322Z,21.94
2022-09-27T14:24:47.750Z,21.91
2022-09-27T14:27:19.939Z,21.87
2022-09-27T14:29:51.556Z,21.91
2022-09-27T14:32:21.466Z,21.89
2022-09-27T14:35:05.191Z,21.94
2022-09-27T14:37:32.428Z,21.80
2022-09-27T14:40:06.358Z,21.77
2022-09-27T14:42:37.591Z,21.64
2022-09-27T14:45:16.194Z,21.45
2022-09-27T14:47:47.379Z,21.45
2022-09-27T14:50:20.312Z,21.50
2022-09-27T14:52:49.947Z,21.43
2022-09-27T14:55:21.367Z,21.09
2022-09-27T14:57:53.807Z,21.05
2022-09-27T15:00:24.757Z,21.01
2022-09-27T15:02:55.770Z,20.95
2022-09-27T15:05:25.583Z,20.82
2022-09-27T15:07:55.882Z,20.76
2022-09-27T15:10:28.053Z,20.78
2022-09-27T15:13:01.401Z,20.81
2022-09-27T15:15:32.460Z,20.88
2022-09-27T15:18:00.809Z,20.90
2022-09-27T15:20:34.989Z,20.91
2022-09-27T15:23:05.054Z,20.72
2022-09-27T15:25:35.841Z,20.79
2022-09-27T15:28:06.979Z,20.81
2022-09-27T15:30:36.785Z,20.81
2022-09-27T15:33:05.639Z,20.79
2022-09-27T15:35:35.132Z,20.75
2022-09-27T15:38:14.842Z,20.76
2022-09-27T15:41:11.335Z,20.73
2022-09-27T15:43:45.486Z,20.66
2022-09-27T15:46:38.122Z,20.57
2022-09-27T15:49:24.221Z,20.46
2022-09-27T15:51:53.275Z,20.47
2022-09-27T15:54:21.758Z,20.37
2022-09-27T15:56:55.052Z,20.50
2022-09-27T15:59:26.748Z,20.47
2022-09-27T16:01:57.508Z,20.42
2022-09-27T16:04:26.342Z,20.39
2022-09-27T16:06:54.914Z,20.35
2022-09-27T16:09:23.618Z,20.30
2022-09-27T16:11:51.977Z,20.30
2022-09-27T16:14:20.602Z,20.28
2022-09-27T16:16:52.210Z,20.23
2022-09-27T16:19:20.565Z,20.20
2022-09-27T16:21:49.093Z,20.18
2022-09-27T16:24:18.409Z,20.07
2022-09-27T16:26:46.293Z,20.07
2022-09-27T16:29:16.878Z,20.04
2022-09-27T16:31:45.294Z,20.02
2022-09-27T16:34:14.795Z,19.94
2022-09-27T16:36:42.731Z,19.82
2022-09-27T16:39:14.372Z,19.83
2022-09-27T16:41:43.663Z,19.76
2022-09-27T16:44:13.614Z,19.71
2022-09-27T16:46:42.369Z,19.66
2022-09-27T16:49:30.542Z,19.60
2022-09-27T16:52:01.926Z,19.32
2022-09-27T16:54:30.677Z,19.29
2022-09-27T16:56:59.845Z,19.37
2022-09-27T16:59:28.011Z,19.38
2022-09-27T17:01:57.308Z,19.38
2022-09-27T17:04:25.534Z,19.35
2022-09-27T17:06:53.521Z,19.30
2022-09-27T17:09:23.064Z,19.28
2022-09-27T17:11:51.188Z,19.23
2022-09-27T17:14:19.235Z,19.20
2022-09-27T17:16:48.433Z,19.10
2022-09-27T17:19:16.800Z,19.07
2022-09-27T17:21:44.895Z,19.00
2022-09-27T17:24:13.292Z,18.97
2022-09-27T17:26:42.953Z,19.01
2022-09-27T17:29:11.810Z,18.96
2022-09-27T17:31:41.035Z,18.91
2022-09-27T17:34:12.363Z,18.81
2022-09-27T17:36:42.439Z,18.78
2022-09-27T17:39:14.144Z,18.71
2022-09-27T17:41:43.949Z,18.64
2022-09-27T17:44:14.178Z,18.63
2022-09-27T17:46:43.196Z,18.57
2022-09-27T17:49:29.422Z,18.60
2022-09-27T17:51:57.797Z,18.55
2022-09-27T17:54:28.007Z,18.54
2022-09-27T17:56:57.454Z,18.43
2022-09-27T17:59:26.093Z,18.39
2022-09-27T18:01:54.106Z,18.26
2022-09-27T18:04:22.496Z,18.32
2022-09-27T18:06:50.488Z,18.30
2022-09-27T18:09:19.772Z,18.27
2022-09-27T18:11:48.314Z,18.24
2022-09-27T18:14:17.997Z,18.18
2022-09-27T18:16:46.163Z,18.08
2022-09-27T18:19:15.816Z,18.07
2022-09-27T18:21:44.107Z,18.06
2022-09-27T18:24:14.340Z,17.98
2022-09-27T18:26:42.563Z,17.98
2022-09-27T18:29:14.163Z,17.79
2022-09-27T18:31:48.431Z,17.87
2022-09-27T18:34:17.779Z,17.82
2022-09-27T18:36:46.234Z,17.79
2022-09-27T18:39:18.253Z,17.84
2022-09-27T18:41:48.613Z,17.82
2022-09-27T18:44:17.596Z,17.82
2022-09-27T18:46:47.415Z,17.79
2022-09-27T18:49:16.014Z,17.81
2022-09-27T18:51:47.067Z,17.80
2022-09-27T18:54:17.238Z,17.80
2022-09-27T18:56:45.544Z,17.47
2022-09-27T18:59:13.537Z,17.45
2022-09-27T19:01:45.369Z,17.43
2022-09-27T19:04:21.641Z,17.58
2022-09-27T19:06:51.365Z,17.65
2022-09-27T19:09:19.430Z,17.39
2022-09-27T19:11:47.458Z,17.66
2022-09-27T19:14:17.628Z,17.40
2022-09-27T19:16:47.503Z,17.51
2022-09-27T19:19:17.756Z,17.43
2022-09-27T19:21:46.305Z,17.40
2022-09-27T19:24:15.236Z,17.44
2022-09-27T19:26:43.748Z,17.55
2022-09-27T19:29:12.992Z,17.65
2022-09-27T19:31:42.419Z,17.74
2022-09-27T19:34:10.833Z,17.77
2022-09-27T19:36:40.187Z,17.83
2022-09-27T19:39:08.170Z,17.81
2022-09-27T19:41:36.080Z,17.86
2022-09-27T19:44:04.043Z,17.93
2022-09-27T19:46:32.031Z,17.97
2022-09-27T19:49:01.681Z,17.97
2022-09-27T19:51:31.092Z,18.01
2022-09-27T19:54:00.401Z,18.05
2022-09-27T19:56:28.298Z,17.67
2022-09-27T19:58:56.218Z,17.53
2022-09-27T20:01:26.156Z,17.64
2022-09-27T20:03:58.034Z,17.22
2022-09-27T20:06:26.178Z,16.88
2022-09-27T20:08:54.083Z,16.77
2022-09-27T20:11:26.254Z,16.84
2022-09-27T20:13:54.472Z,16.86
2022-09-27T20:16:24.029Z,16.87
2022-09-27T20:18:53.434Z,16.92
2022-09-27T20:21:22.955Z,16.96
2022-09-27T20:23:52.725Z,17.00
2022-09-27T20:26:24.342Z,17.02
2022-09-27T20:28:54.045Z,17.07
2022-09-27T20:31:23.573Z,17.09
2022-09-27T20:33:51.768Z,17.09
2022-09-27T20:36:21.074Z,17.07
2022-09-27T20:38:50.359Z,17.02
2022-09-27T20:41:21.772Z,16.85
2022-09-27T20:43:54.101Z,16.76
2022-09-27T20:46:22.933Z,16.71
2022-09-27T20:48:53.657Z,16.53
2022-09-27T20:51:21.964Z,16.51
2022-09-27T20:53:51.448Z,16.40
2022-09-27T20:56:21.464Z,16.37
2022-09-27T20:58:52.526Z,16.44
2022-09-27T21:01:21.986Z,16.50
2022-09-27T21:03:54.633Z,16.47
2022-09-27T21:06:24.031Z,16.41
2022-09-27T21:08:52.670Z,16.39
2022-09-27T21:11:21.894Z,16.50
2022-09-27T21:13:53.992Z,16.48
2022-09-27T21:16:23.711Z,16.45
2022-09-27T21:18:52.611Z,16.38
2022-09-27T21:21:21.761Z,16.24
2022-09-27T21:23:55.313Z,16.16
2022-09-27T21:26:24.658Z,16.08
2022-09-27T21:28:55.706Z,15.99
2022-09-27T21:31:25.286Z,15.96
2022-09-27T21:33:55.440Z,15.84
2022-09-27T21:36:24.708Z,15.96
2022-09-27T21:38:52.751Z,16.01
2022-09-27T21:41:20.984Z,16.02
2022-09-27T21:43:50.038Z,16.02
2022-09-27T21:46:23.473Z,16.05
2022-09-27T21:48:53.175Z,16.05
2022-09-27T21:51:22.793Z,15.86
2022-09-27T21:53:52.431Z,15.87
2022-09-27T21:56:23.238Z,15.84
2022-09-27T21:58:51.142Z,15.60
2022-09-27T22:01:22.363Z,15.61
2022-09-27T22:03:51.654Z,15.64
2022-09-27T22:06:21.642Z,15.71
2022-09-27T22:08:50.431Z,15.68
2022-09-27T22:11:20.628Z,15.62
2022-09-27T22:13:49.150Z,15.68
2022-09-27T22:16:18.635Z,15.67
2022-09-27T22:18:50.164Z,15.70
2022-09-27T22:21:21.202Z,15.74
2022-09-27T22:23:49.790Z,15.73
2022-09-27T22:26:19.196Z,15.69
2022-09-27T22:28:47.754Z,15.73
2022-09-27T22:31:18.647Z,15.78
2022-09-27T22:33:51.555Z,15.66
2022-09-27T22:36:19.506Z,15.64
2022-09-27T22:38:47.731Z,15.64
2022-09-27T22:41:16.196Z,15.67
2022-09-27T22:43:44.874Z,15.68
2022-09-27T22:46:13.207Z,15.65
2022-09-27T22:48:41.745Z,15.58
2022-09-27T22:51:11.469Z,15.65
2022-09-27T22:53:39.698Z,15.57
2022-09-27T22:56:10.042Z,15.50
2022-09-27T22:58:38.786Z,15.46
2022-09-27T23:01:10.656Z,15.54
2022-09-27T23:03:38.705Z,15.59
2022-09-27T23:06:08.276Z,15.45
2022-09-27T23:08:38.301Z,15.56
2022-09-27T23:11:08.237Z,15.57
2022-09-27T23:13:37.941Z,15.56
2022-09-27T23:16:07.792Z,15.50
2022-09-27T23:18:37.331Z,15.52
2022-09-27T23:21:08.368Z,15.50
2022-09-27T23:23:40.772Z,15.47
2022-09-27T23:26:10.658Z,15.42
2022-09-27T23:28:39.134Z,15.32
2022-09-27T23:31:08.513Z,15.31
2022-09-27T23:33:37.442Z,15.25
2022-09-27T23:36:06.501Z,15.30
2022-09-27T23:38:34.575Z,15.30
2022-09-27T23:41:03.899Z,15.32
2022-09-27T23:43:31.803Z,15.27
2022-09-27T23:45:59.737Z,15.29
2022-09-27T23:48:27.908Z,15.25
2022-09-27T23:50:56.830Z,15.18
2022-09-27T23:53:25.271Z,15.21
2022-09-27T23:56:02.770Z,15.15
2022-09-27T23:58:34.038Z,15.19
